createdAt,value
2023-05-05T00:03:44.141Z,14.95
2023-05-05T00:08:00.437Z,15.26
2023-05-05T00:12:16.764Z,15.23
2023-05-05T00:16:33.321Z,15.07
2023-05-05T00:20:49.779Z,15.10
2023-05-05T00:25:07.388Z,15.00
2023-05-05T00:29:23.831Z,15.00
2023-05-05T00:33:40.062Z,14.96
2023-05-05T00:37:56.440Z,14.89
2023-05-05T00:42:12.678Z,14.81
2023-05-05T00:46:30.808Z,14.72
2023-05-05T00:50:47.197Z,14.92
2023-05-05T00:55:04.553Z,14.89
2023-05-05T00:59:21.184Z,14.83
2023-05-05T01:03:39.465Z,14.83
2023-05-05T01:08:23.433Z,14.69
2023-05-05T01:13:02.634Z,14.52
2023-05-05T01:17:21.968Z,14.32
2023-05-05T01:22:03.580Z,14.12
2023-05-05T01:26:48.783Z,13.85
2023-05-05T01:31:13.935Z,13.92
2023-05-05T01:35:33.399Z,13.95
2023-05-05T01:39:54.247Z,14.08
2023-05-05T01:44:13.763Z,13.79
2023-05-05T01:48:31.344Z,13.91
2023-05-05T01:52:47.904Z,13.75
2023-05-05T01:57:05.875Z,13.73
2023-05-05T02:01:27.211Z,13.58
2023-05-05T02:05:44.126Z,13.45
2023-05-05T02:10:02.681Z,13.36
2023-05-05T02:14:20.708Z,13.46
2023-05-05T02:18:37.758Z,13.36
2023-05-05T02:22:54.415Z,13.22
2023-05-05T02:27:11.477Z,13.20
2023-05-05T02:31:28.689Z,13.27
2023-05-05T02:35:47.197Z,13.16
2023-05-05T02:40:08.859Z,13.12
2023-05-05T02:44:27.263Z,12.99
2023-05-05T02:48:46.695Z,13.29
2023-05-05T02:53:03.201Z,13.13
2023-05-05T02:57:21.334Z,12.91
2023-05-05T03:02:13.081Z,13.09
2023-05-05T03:06:29.974Z,13.20
2023-05-05T03:11:05.284Z,13.03
2023-05-05T03:15:26.727Z,12.94
2023-05-05T03:19:44.620Z,12.78
2023-05-05T03:24:01.385Z,12.84
2023-05-05T03:28:18.200Z,12.68
2023-05-05T03:32:34.534Z,12.53
2023-05-05T03:36:51.021Z,12.66
2023-05-05T03:41:07.253Z,12.50
2023-05-05T03:45:23.477Z,12.77
2023-05-05T03:49:39.648Z,12.77
2023-05-05T03:53:55.904Z,12.48
2023-05-05T03:58:12.211Z,12.37
2023-05-05T04:02:28.627Z,12.43
2023-05-05T04:06:44.906Z,12.24
2023-05-05T04:11:02.823Z,12.41
2023-05-05T04:15:19.097Z,12.42
2023-05-05T04:19:35.352Z,12.20
2023-05-05T04:23:51.535Z,12.36
2023-05-05T04:28:07.917Z,12.40
2023-05-05T04:32:24.288Z,12.42
2023-05-05T04:36:40.694Z,12.38
2023-05-05T04:40:56.932Z,12.45
2023-05-05T04:45:13.534Z,12.63
2023-05-05T04:49:33.129Z,12.67
2023-05-05T04:53:49.374Z,12.80
2023-05-05T04:58:05.747Z,12.67
2023-05-05T05:02:22.149Z,12.82
2023-05-05T05:06:38.449Z,12.87
2023-05-05T05:10:54.763Z,13.05
2023-05-05T05:15:13.192Z,13.04
2023-05-05T05:19:30.025Z,13.10
2023-05-05T05:23:46.352Z,13.32
2023-05-05T05:28:10.301Z,13.65
2023-05-05T05:32:27.373Z,13.37
2023-05-05T05:36:43.548Z,13.59
2023-05-05T05:40:59.919Z,13.86
2023-05-05T05:45:16.324Z,13.77
2023-05-05T05:49:33.640Z,14.03
2023-05-05T05:53:49.958Z,13.85
2023-05-05T05:58:10.080Z,13.84
2023-05-05T06:02:27.509Z,14.17
2023-05-05T06:06:43.867Z,13.81
2023-05-05T06:11:00.843Z,14.02
2023-05-05T06:15:17.377Z,13.75
2023-05-05T06:19:34.727Z,14.39
2023-05-05T06:23:51.204Z,14.19
2023-05-05T06:28:07.463Z,14.41
2023-05-05T06:32:23.790Z,14.78
2023-05-05T06:36:40.057Z,15.26
2023-05-05T06:40:58.692Z,15.33
2023-05-05T06:45:15.178Z,15.30
2023-05-05T06:49:31.507Z,15.60
2023-05-05T06:53:47.838Z,15.80
2023-05-05T06:58:04.125Z,15.88
2023-05-05T07:02:20.304Z,16.30
2023-05-05T07:06:36.509Z,16.65
2023-05-05T07:10:52.719Z,17.05
2023-05-05T07:15:23.365Z,17.49
2023-05-05T07:19:44.399Z,17.85
2023-05-05T07:24:01.377Z,18.12
2023-05-05T07:28:18.019Z,17.90
2023-05-05T07:32:34.642Z,18.59
2023-05-05T07:36:51.069Z,18.95
2023-05-05T07:41:07.364Z,19.13
2023-05-05T07:45:23.644Z,19.69
2023-05-05T07:49:39.864Z,20.02
2023-05-05T07:53:56.670Z,20.02
2023-05-05T07:58:13.048Z,19.94
2023-05-05T08:02:29.465Z,20.00
2023-05-05T08:06:45.888Z,20.18
2023-05-05T08:11:02.521Z,20.58
2023-05-05T08:15:18.841Z,20.60
2023-05-05T08:19:35.155Z,20.36
2023-05-05T08:23:51.330Z,20.55
2023-05-05T08:28:07.515Z,19.88
2023-05-05T08:32:23.824Z,20.69
2023-05-05T08:36:40.053Z,20.47
2023-05-05T08:40:56.455Z,19.63
2023-05-05T08:45:13.206Z,20.18
2023-05-05T08:49:40.569Z,20.16
2023-05-05T08:54:01.021Z,20.52
2023-05-05T08:58:20.493Z,20.49
2023-05-05T09:02:37.363Z,20.29
2023-05-05T09:06:53.739Z,20.59
2023-05-05T09:11:09.925Z,21.19
2023-05-05T09:15:28.485Z,21.36
2023-05-05T09:20:04.947Z,21.28
2023-05-05T09:24:21.340Z,21.83
2023-05-05T09:28:37.780Z,21.38
2023-05-05T09:32:55.784Z,21.62
2023-05-05T09:37:12.000Z,21.45
2023-05-05T09:41:38.730Z,21.93
2023-05-05T09:46:10.000Z,22.37
2023-05-05T09:50:26.332Z,22.94
2023-05-05T09:54:43.895Z,22.62
2023-05-05T09:59:09.722Z,22.75
2023-05-05T10:03:26.718Z,23.30
2023-05-05T10:07:47.801Z,22.94
2023-05-05T10:12:05.152Z,22.80
2023-05-05T10:16:21.966Z,23.34
2023-05-05T10:20:38.977Z,23.40
2023-05-05T10:25:12.860Z,23.50
2023-05-05T10:29:47.576Z,23.33
2023-05-05T10:34:04.980Z,23.22
2023-05-05T10:38:24.708Z,23.27
2023-05-05T10:42:42.575Z,23.45
2023-05-05T10:46:59.517Z,24.10
2023-05-05T10:51:39.887Z,23.73
2023-05-05T10:56:11.953Z,23.25
2023-05-05T11:00:40.462Z,24.13
2023-05-05T11:05:22.853Z,24.65
2023-05-05T11:09:54.723Z,24.46
2023-05-05T11:14:22.642Z,24.77
2023-05-05T11:18:40.902Z,24.99
2023-05-05T11:23:03.835Z,25.40
2023-05-05T11:27:19.974Z,25.91
2023-05-05T11:31:36.159Z,25.08
2023-05-05T11:36:05.022Z,25.01
2023-05-05T11:40:30.092Z,25.16
2023-05-05T11:44:46.526Z,24.85
2023-05-05T11:49:02.752Z,25.64
2023-05-05T11:53:20.469Z,26.34
2023-05-05T11:57:36.765Z,26.50
2023-05-05T12:01:53.332Z,26.84
2023-05-05T12:06:09.629Z,26.11
2023-05-05T12:10:26.027Z,26.73
2023-05-05T12:14:53.337Z,25.45
2023-05-05T12:19:11.990Z,26.22
2023-05-05T12:23:30.272Z,26.81
2023-05-05T12:27:56.074Z,25.94
2023-05-05T12:32:24.031Z,26.19
2023-05-05T12:36:40.342Z,26.87
2023-05-05T12:40:56.741Z,25.03
2023-05-05T12:45:20.216Z,25.70
2023-05-05T12:49:52.205Z,26.49
2023-05-05T12:54:10.932Z,26.92
2023-05-05T12:58:28.159Z,27.73
2023-05-05T13:02:44.530Z,28.32
2023-05-05T13:07:10.906Z,28.58
2023-05-05T13:11:27.499Z,28.61
2023-05-05T13:15:43.820Z,28.66
2023-05-05T13:20:00.121Z,28.99
2023-05-05T13:28:36.231Z,29.62
2023-05-05T13:32:52.495Z,29.57
2023-05-05T13:37:08.944Z,29.45
2023-05-05T13:41:25.159Z,28.71
2023-05-05T13:45:41.998Z,28.21
2023-05-05T13:49:58.336Z,28.52
2023-05-05T13:54:14.572Z,28.70
2023-05-05T13:58:30.802Z,28.55
2023-05-05T14:02:48.273Z,27.66
2023-05-05T14:07:05.082Z,27.49
2023-05-05T14:11:21.649Z,27.68
2023-05-05T14:15:37.986Z,27.88
2023-05-05T14:19:54.295Z,27.99
2023-05-05T14:24:10.577Z,26.95
2023-05-05T14:28:26.958Z,26.94
2023-05-05T14:32:43.265Z,27.11
2023-05-05T14:36:59.589Z,27.41
2023-05-05T14:41:15.854Z,27.87
2023-05-05T14:45:32.920Z,28.01
2023-05-05T14:49:49.193Z,27.83
2023-05-05T14:54:11.720Z,27.91
2023-05-05T14:58:33.706Z,27.84
2023-05-05T15:02:50.007Z,27.40
2023-05-05T15:07:06.401Z,27.91
2023-05-05T15:11:22.624Z,28.01
2023-05-05T15:15:39.008Z,28.22
2023-05-05T15:19:56.215Z,27.91
2023-05-05T15:24:12.589Z,28.50
2023-05-05T15:28:28.746Z,28.28
2023-05-05T15:32:45.095Z,28.41
2023-05-05T15:37:01.426Z,27.81
2023-05-05T15:41:17.640Z,27.39
2023-05-05T15:45:34.773Z,27.63
2023-05-05T15:49:52.591Z,27.54
2023-05-05T15:54:08.860Z,27.36
2023-05-05T15:58:25.129Z,27.27
2023-05-05T16:02:41.458Z,27.13
2023-05-05T16:06:58.398Z,26.91
2023-05-05T16:11:14.712Z,26.69
2023-05-05T16:15:32.045Z,27.12
2023-05-05T16:19:48.387Z,27.47
2023-05-05T16:24:04.775Z,27.04
2023-05-05T16:28:21.212Z,26.83
2023-05-05T16:32:37.519Z,26.72
2023-05-05T16:36:54.076Z,26.34
2023-05-05T16:41:11.453Z,26.87
2023-05-05T16:45:27.808Z,26.50
2023-05-05T16:49:44.243Z,26.09
2023-05-05T16:54:00.523Z,26.10
2023-05-05T16:58:16.845Z,26.36
2023-05-05T17:02:33.453Z,26.14
2023-05-05T17:06:49.814Z,26.53
2023-05-05T17:11:06.074Z,26.45
2023-05-05T17:15:22.506Z,26.52
2023-05-05T17:19:38.789Z,26.48
2023-05-05T17:23:55.176Z,26.23
2023-05-05T17:28:11.652Z,26.17
2023-05-05T17:32:46.808Z,26.15
2023-05-05T17:37:03.215Z,25.95
2023-05-05T17:41:19.913Z,25.71
2023-05-05T17:45:36.468Z,25.16
2023-05-05T17:49:54.292Z,24.59
2023-05-05T17:54:10.608Z,24.09
2023-05-05T17:58:26.934Z,23.85
2023-05-05T18:02:43.492Z,23.42
2023-05-05T18:07:00.212Z,23.19
2023-05-05T18:11:16.606Z,23.03
2023-05-05T18:15:33.077Z,22.51
2023-05-05T18:19:55.364Z,22.49
2023-05-05T18:24:20.147Z,22.33
2023-05-05T18:28:37.811Z,22.15
2023-05-05T18:32:54.155Z,21.87
2023-05-05T18:37:10.832Z,21.82
2023-05-05T18:41:27.279Z,21.64
2023-05-05T18:45:43.772Z,21.25
2023-05-05T18:50:00.182Z,21.02
2023-05-05T18:54:16.429Z,20.84
2023-05-05T18:58:32.904Z,20.73
2023-05-05T19:02:49.233Z,20.51
2023-05-05T19:07:05.827Z,20.25
2023-05-05T19:11:23.772Z,20.11
2023-05-05T19:15:43.564Z,20.03
2023-05-05T19:20:00.720Z,19.92
2023-05-05T19:24:21.102Z,19.63
2023-05-05T19:28:37.388Z,19.44
2023-05-05T19:32:53.796Z,19.27
2023-05-05T19:37:10.607Z,19.25
2023-05-05T19:41:27.049Z,19.23
2023-05-05T19:45:43.426Z,19.02
2023-05-05T19:49:59.862Z,18.81
2023-05-05T19:54:16.660Z,18.64
2023-05-05T19:58:54.616Z,18.21
2023-05-05T20:03:11.271Z,18.08
2023-05-05T20:07:27.626Z,18.12
2023-05-05T20:11:43.846Z,18.04
2023-05-05T20:16:00.600Z,17.87
2023-05-05T20:20:20.218Z,17.99
2023-05-05T20:24:36.764Z,17.88
2023-05-05T20:28:53.157Z,17.76
2023-05-05T20:33:09.403Z,17.46
2023-05-05T20:37:27.293Z,17.21
2023-05-05T20:41:43.720Z,17.35
2023-05-05T20:46:01.353Z,17.54
2023-05-05T20:50:20.862Z,17.19
2023-05-05T20:54:37.215Z,17.29
2023-05-05T20:58:53.428Z,17.33
2023-05-05T21:03:09.820Z,17.16
2023-05-05T21:07:26.152Z,17.02
2023-05-05T21:11:42.739Z,17.04
2023-05-05T21:15:59.060Z,16.79
2023-05-05T21:20:16.312Z,16.85
2023-05-05T21:24:32.572Z,16.86
2023-05-05T21:28:48.812Z,16.75
2023-05-05T21:33:05.176Z,16.99
2023-05-05T21:37:21.361Z,16.85
2023-05-05T21:41:37.771Z,16.52
2023-05-05T21:46:01.336Z,16.65
2023-05-05T21:50:17.576Z,16.42
2023-05-05T21:54:33.787Z,16.28
2023-05-05T21:58:50.061Z,16.22
2023-05-05T22:03:06.320Z,16.07
2023-05-05T22:07:22.651Z,15.93
2023-05-05T22:11:38.861Z,15.95
2023-05-05T22:15:55.212Z,15.87
2023-05-05T22:20:11.783Z,15.99
2023-05-05T22:24:28.125Z,15.84
2023-05-05T22:28:44.302Z,15.62
2023-05-05T22:33:00.656Z,15.96
2023-05-05T22:37:17.354Z,15.88
2023-05-05T22:41:33.536Z,15.74
2023-05-05T22:45:50.121Z,15.71
2023-05-05T22:50:08.006Z,15.65
2023-05-05T22:54:24.371Z,15.36
2023-05-05T22:58:40.898Z,15.37
2023-05-05T23:02:57.167Z,15.35
2023-05-05T23:07:13.784Z,15.32
2023-05-05T23:11:29.973Z,15.48
2023-05-05T23:15:46.352Z,15.47
2023-05-05T23:20:02.908Z,15.35
2023-05-05T23:24:19.323Z,15.38
2023-05-05T23:28:35.551Z,15.24
2023-05-05T23:32:52.020Z,15.01
2023-05-05T23:37:08.293Z,15.30
2023-05-05T23:41:24.762Z,15.17
2023-05-05T23:45:41.180Z,15.10
2023-05-05T23:49:57.391Z,15.07
2023-05-05T23:54:13.650Z,15.02
2023-05-05T23:58:30.049Z,14.96
